createdAt,value
2018-06-27T00:01:57.444Z,101883.36
2018-06-27T00:04:24.834Z,101881.61
2018-06-27T00:06:52.050Z,101877.64
2018-06-27T00:09:19.225Z,101869.30
2018-06-27T00:11:46.357Z,101866.28
2018-06-27T00:14:13.544Z,101874.11
2018-06-27T00:16:40.776Z,101879.62
2018-06-27T00:19:07.972Z,101868.21
2018-06-27T00:21:35.221Z,101876.16
2018-06-27T00:24:02.439Z,101869.17
2018-06-27T00:26:29.647Z,101866.70
2018-06-27T00:28:57.073Z,101866.45
2018-06-27T00:31:24.435Z,101860.34
2018-06-27T00:33:51.662Z,101857.38
2018-06-27T00:36:18.813Z,101863.27
2018-06-27T00:38:45.980Z,101857.27
2018-06-27T00:41:13.171Z,101856.39
2018-06-27T00:43:40.476Z,101859.06
2018-06-27T00:46:07.633Z,101857.70
2018-06-27T00:48:34.794Z,101859.48
2018-06-27T00:51:02.105Z,101863.97
2018-06-27T00:53:34.961Z,101865.13
2018-06-27T00:56:02.197Z,101863.43
2018-06-27T00:58:29.449Z,101871.83
2018-06-27T01:00:56.819Z,101870.77
2018-06-27T01:03:24.087Z,101874.03
2018-06-27T01:05:51.339Z,101873.73
2018-06-27T01:08:18.544Z,101874.80
2018-06-27T01:10:46.186Z,101877.09
2018-06-27T01:13:14.953Z,101865.63
2018-06-27T01:15:42.108Z,101870.53
2018-06-27T01:18:09.359Z,101865.34
2018-06-27T01:20:36.511Z,101865.99
2018-06-27T01:23:03.712Z,101872.45
2018-06-27T01:25:30.991Z,101876.00
2018-06-27T01:27:58.230Z,101874.20
2018-06-27T01:30:25.470Z,101872.36
2018-06-27T01:32:52.626Z,101871.03
2018-06-27T01:35:19.767Z,101872.41
2018-06-27T01:37:46.875Z,101875.95
2018-06-27T01:40:14.186Z,101884.69
2018-06-27T01:42:41.412Z,101885.06
2018-06-27T01:45:08.643Z,101884.34
2018-06-27T01:47:35.827Z,101879.88
2018-06-27T01:50:02.972Z,101877.99
2018-06-27T01:52:30.205Z,101877.52
2018-06-27T01:54:57.511Z,101880.59
2018-06-27T01:57:24.846Z,101883.31
2018-06-27T01:59:52.000Z,101886.91
2018-06-27T02:02:19.172Z,101890.44
2018-06-27T02:04:46.667Z,101892.25
2018-06-27T02:07:13.800Z,101888.78
2018-06-27T02:09:41.037Z,101889.36
2018-06-27T02:12:08.171Z,101898.72
2018-06-27T02:14:35.362Z,101895.37
2018-06-27T02:17:02.580Z,101896.78
2018-06-27T02:19:29.779Z,101899.56
2018-06-27T02:21:57.084Z,101902.23
2018-06-27T02:24:24.337Z,101907.50
2018-06-27T02:26:51.485Z,101908.37
2018-06-27T02:29:18.614Z,101899.97
2018-06-27T02:31:47.892Z,101903.94
2018-06-27T02:34:15.158Z,101910.08
2018-06-27T02:36:42.343Z,101902.71
2018-06-27T02:39:10.802Z,101905.69
2018-06-27T02:41:39.079Z,101899.97
2018-06-27T02:44:06.218Z,101901.34
2018-06-27T02:46:33.512Z,101901.84
2018-06-27T02:49:00.737Z,101904.99
2018-06-27T02:51:27.967Z,101904.99
2018-06-27T02:53:55.221Z,101896.28
2018-06-27T02:56:22.352Z,101910.45
2018-06-27T02:58:49.617Z,101912.30
2018-06-27T03:01:16.837Z,101917.27
2018-06-27T03:03:43.981Z,101918.59
2018-06-27T03:06:11.219Z,101920.80
2018-06-27T03:08:38.383Z,101921.61
2018-06-27T03:11:05.694Z,101923.39
2018-06-27T03:13:32.852Z,101927.43
2018-06-27T03:16:00.063Z,101919.95
2018-06-27T03:18:27.351Z,101924.91
2018-06-27T03:20:54.595Z,101926.66
2018-06-27T03:23:21.846Z,101934.16
2018-06-27T03:25:48.968Z,101936.88
2018-06-27T03:28:16.135Z,101935.40
2018-06-27T03:30:43.306Z,101933.34
2018-06-27T03:33:10.461Z,101940.39
2018-06-27T03:35:37.770Z,101947.02
2018-06-27T03:38:05.032Z,101943.98
2018-06-27T03:40:32.536Z,101938.64
2018-06-27T03:42:59.731Z,101943.91
2018-06-27T03:45:26.978Z,101947.43
2018-06-27T03:47:54.348Z,101947.45
2018-06-27T03:50:22.565Z,101950.48
2018-06-27T03:52:49.773Z,101954.86
2018-06-27T03:55:16.975Z,101958.84
2018-06-27T03:57:44.432Z,101957.52
2018-06-27T04:00:11.747Z,101961.42
2018-06-27T04:02:38.945Z,101954.81
2018-06-27T04:05:06.268Z,101954.74
2018-06-27T04:07:33.603Z,101961.25
2018-06-27T04:10:00.902Z,101959.72
2018-06-27T04:12:28.330Z,101963.19
2018-06-27T04:14:55.649Z,101959.14
2018-06-27T04:17:22.798Z,101959.02
2018-06-27T04:19:49.939Z,101968.16
2018-06-27T04:22:24.823Z,101968.38
2018-06-27T04:24:52.035Z,101970.06
2018-06-27T04:27:19.182Z,101965.97
2018-06-27T04:29:46.356Z,101965.88
2018-06-27T04:32:13.468Z,101967.51
2018-06-27T04:34:40.628Z,101972.76
2018-06-27T04:37:07.892Z,101977.92
2018-06-27T04:39:35.104Z,101979.67
2018-06-27T04:42:02.237Z,101978.83
2018-06-27T04:44:29.412Z,101986.70
2018-06-27T04:46:56.589Z,101982.48
2018-06-27T04:49:23.868Z,101981.09
2018-06-27T04:51:51.130Z,101980.61
2018-06-27T04:54:18.232Z,101986.28
2018-06-27T04:56:45.379Z,101985.81
2018-06-27T04:59:12.543Z,101989.63
2018-06-27T05:01:40.372Z,101991.08
2018-06-27T05:04:07.507Z,101990.28
2018-06-27T05:06:34.647Z,101992.58
2018-06-27T05:09:01.920Z,101997.20
2018-06-27T05:11:29.123Z,102001.65
2018-06-27T05:13:56.404Z,101991.14
2018-06-27T05:16:23.562Z,102001.09
2018-06-27T05:18:50.718Z,102002.63
2018-06-27T05:21:17.909Z,102003.53
2018-06-27T05:23:45.050Z,102008.49
2018-06-27T05:26:12.237Z,102005.01
2018-06-27T05:28:39.451Z,102011.12
2018-06-27T05:31:06.603Z,102013.10
2018-06-27T05:33:33.774Z,102007.94
2018-06-27T05:36:00.951Z,102009.34
2018-06-27T05:38:28.274Z,102010.52
2018-06-27T05:40:55.436Z,102010.30
2018-06-27T05:43:22.625Z,102010.83
2018-06-27T05:45:50.076Z,102012.45
2018-06-27T05:48:17.225Z,102015.64
2018-06-27T05:50:44.487Z,102019.20
2018-06-27T05:53:11.617Z,102025.25
2018-06-27T05:55:38.787Z,102026.49
2018-06-27T05:58:06.017Z,102030.75
2018-06-27T06:00:33.120Z,102032.95
2018-06-27T06:03:00.414Z,102037.03
2018-06-27T06:05:27.644Z,102038.82
2018-06-27T06:07:54.819Z,102042.74
2018-06-27T06:10:21.936Z,102043.11
2018-06-27T06:12:49.134Z,102046.23
2018-06-27T06:15:16.352Z,102040.11
2018-06-27T06:17:43.457Z,102037.28
2018-06-27T06:20:10.644Z,102037.08
2018-06-27T06:22:37.745Z,102041.09
2018-06-27T06:25:04.956Z,102042.21
2018-06-27T06:27:32.121Z,102045.77
2018-06-27T06:29:59.288Z,102046.42
2018-06-27T06:32:26.569Z,102050.29
2018-06-27T06:34:53.724Z,102043.63
2018-06-27T06:37:20.841Z,102037.66
2018-06-27T06:39:47.955Z,102044.00
2018-06-27T06:42:15.112Z,102047.48
2018-06-27T06:44:42.240Z,102049.53
2018-06-27T06:47:09.561Z,102052.94
2018-06-27T06:49:36.735Z,102051.31
2018-06-27T06:52:04.036Z,102052.09
2018-06-27T06:54:32.540Z,102056.25
2018-06-27T06:56:59.791Z,102053.50
2018-06-27T06:59:26.949Z,102061.83
2018-06-27T07:01:54.143Z,102061.63
2018-06-27T07:04:21.305Z,102066.30
2018-06-27T07:06:50.507Z,102064.35
2018-06-27T07:09:17.642Z,102060.04
2018-06-27T07:11:44.783Z,102050.78
2018-06-27T07:14:12.511Z,102058.78
2018-06-27T07:16:40.196Z,102055.49
2018-06-27T07:19:07.401Z,102057.70
2018-06-27T07:21:34.572Z,102055.50
2018-06-27T07:24:02.073Z,102054.17
2018-06-27T07:26:29.322Z,102055.09
2018-06-27T07:29:08.994Z,102059.23
2018-06-27T07:31:36.191Z,102062.48
2018-06-27T07:34:03.384Z,102061.13
2018-06-27T07:36:30.548Z,102058.05
2018-06-27T07:38:57.777Z,102073.92
2018-06-27T07:41:25.004Z,102070.59
2018-06-27T07:43:52.136Z,102071.08
2018-06-27T07:46:19.407Z,102083.23
2018-06-27T07:48:46.667Z,102082.53
2018-06-27T07:51:13.884Z,102073.52
2018-06-27T07:53:41.890Z,102078.36
2018-06-27T07:56:09.028Z,102072.93
2018-06-27T07:58:36.165Z,102067.67
2018-06-27T08:01:03.399Z,102066.00
2018-06-27T08:03:30.681Z,102069.16
2018-06-27T08:05:57.888Z,102064.91
2018-06-27T08:08:25.115Z,102060.87
2018-06-27T08:10:52.217Z,102067.80
2018-06-27T08:13:19.340Z,102066.10
2018-06-27T08:15:46.611Z,102067.56
2018-06-27T08:18:13.768Z,102069.04
2018-06-27T08:20:40.907Z,102074.02
2018-06-27T08:23:08.380Z,102073.77
2018-06-27T08:25:37.776Z,102073.36
2018-06-27T08:28:05.020Z,102079.60
2018-06-27T08:30:32.228Z,102075.83
2018-06-27T08:32:59.430Z,102072.33
2018-06-27T08:35:26.574Z,102070.77
2018-06-27T08:37:53.772Z,102065.50
2018-06-27T08:40:21.105Z,102064.55
2018-06-27T08:42:48.253Z,102064.51
2018-06-27T08:45:17.516Z,102067.48
2018-06-27T08:47:44.678Z,102068.51
2018-06-27T08:50:11.837Z,102068.51
2018-06-27T08:52:39.140Z,102067.87
2018-06-27T08:55:06.325Z,102080.14
2018-06-27T08:57:33.452Z,102073.93
2018-06-27T09:00:00.949Z,102079.78
2018-06-27T09:02:28.122Z,102078.19
2018-06-27T09:04:55.397Z,102083.73
2018-06-27T09:07:22.579Z,102083.61
2018-06-27T09:09:49.848Z,102090.53
2018-06-27T09:12:17.038Z,102077.48
2018-06-27T09:14:44.219Z,102089.83
2018-06-27T09:17:11.435Z,102082.59
2018-06-27T09:19:38.614Z,102079.25
2018-06-27T09:22:06.337Z,102085.92
2018-06-27T09:24:33.488Z,102091.39
2018-06-27T09:27:00.670Z,102090.16
2018-06-27T09:29:28.057Z,102084.59
2018-06-27T09:31:55.273Z,102083.58
2018-06-27T09:34:22.428Z,102088.16
2018-06-27T09:36:49.631Z,102075.00
2018-06-27T09:39:16.872Z,102084.06
2018-06-27T09:41:44.120Z,102083.94
2018-06-27T09:44:11.311Z,102081.91
2018-06-27T09:46:38.485Z,102076.61
2018-06-27T09:49:05.697Z,102078.67
2018-06-27T09:51:32.899Z,102086.41
2018-06-27T09:54:00.081Z,102083.27
2018-06-27T09:56:27.317Z,102081.34
2018-06-27T09:58:54.564Z,102087.27
2018-06-27T10:01:21.720Z,102084.48
2018-06-27T10:03:48.840Z,102073.56
2018-06-27T10:06:16.996Z,102074.56
2018-06-27T10:08:44.116Z,102070.16
2018-06-27T10:11:11.301Z,102070.05
2018-06-27T10:13:38.572Z,102076.10
2018-06-27T10:16:05.843Z,102075.83
2018-06-27T10:18:33.535Z,102067.66
2018-06-27T10:21:00.703Z,102063.86
2018-06-27T10:23:27.967Z,102061.55
2018-06-27T10:25:55.289Z,102072.53
2018-06-27T10:28:22.485Z,102064.36
2018-06-27T10:30:49.649Z,102057.61
2018-06-27T10:33:16.916Z,102046.04
2018-06-27T10:35:44.234Z,102050.40
2018-06-27T10:38:11.429Z,102047.70
2018-06-27T10:40:38.598Z,102047.73
2018-06-27T10:43:05.800Z,102055.50
2018-06-27T10:45:32.908Z,102053.59
2018-06-27T10:48:00.085Z,102047.69
2018-06-27T10:50:28.568Z,102041.12
2018-06-27T10:52:55.909Z,102037.67
2018-06-27T10:55:24.037Z,102047.75
2018-06-27T10:57:51.308Z,102043.64
2018-06-27T11:00:18.469Z,102050.16
2018-06-27T11:02:45.603Z,102051.69
2018-06-27T11:05:12.846Z,102043.83
2018-06-27T11:07:39.947Z,102043.30
2018-06-27T11:10:07.089Z,102047.25
2018-06-27T11:12:34.489Z,102036.56
2018-06-27T11:15:01.628Z,102037.56
2018-06-27T11:17:28.845Z,102040.06
2018-06-27T11:19:56.111Z,102048.28
2018-06-27T11:22:23.690Z,102034.63
2018-06-27T11:24:50.829Z,102041.06
2018-06-27T11:27:21.450Z,102038.33
2018-06-27T11:29:48.678Z,102037.02
2018-06-27T11:32:15.816Z,102029.16
2018-06-27T11:34:43.027Z,102028.16
2018-06-27T11:37:10.140Z,102034.57
2018-06-27T11:39:37.271Z,102036.24
2018-06-27T11:42:04.594Z,102043.94
2018-06-27T11:44:31.815Z,102041.12
2018-06-27T11:46:59.080Z,102032.13
2018-06-27T11:49:26.480Z,102033.79
2018-06-27T11:51:53.666Z,102024.53
2018-06-27T11:54:20.894Z,102028.81
2018-06-27T11:56:48.103Z,102024.70
2018-06-27T11:59:15.246Z,102019.40
2018-06-27T12:01:42.615Z,102018.02
2018-06-27T12:04:09.785Z,102022.98
2018-06-27T12:06:36.976Z,102022.17
2018-06-27T12:09:06.929Z,102006.75
2018-06-27T12:11:34.293Z,102013.59
2018-06-27T12:14:01.520Z,102004.72
2018-06-27T12:16:28.892Z,102010.89
2018-06-27T12:18:56.194Z,102006.21
2018-06-27T12:21:23.409Z,101994.34
2018-06-27T12:23:50.638Z,102007.44
2018-06-27T12:26:18.893Z,102003.99
2018-06-27T12:28:45.976Z,102010.34
2018-06-27T12:31:13.166Z,102012.81
2018-06-27T12:33:40.335Z,102007.05
2018-06-27T12:36:07.525Z,102007.73
2018-06-27T12:38:34.693Z,101992.95
2018-06-27T12:41:01.967Z,101996.30
2018-06-27T12:43:29.214Z,101993.10
2018-06-27T12:45:56.420Z,101995.36
2018-06-27T12:48:23.640Z,101996.44
2018-06-27T12:50:50.825Z,102002.60
2018-06-27T12:53:18.301Z,101996.59
2018-06-27T12:55:45.632Z,101992.95
2018-06-27T12:58:12.803Z,101997.88
2018-06-27T13:00:41.608Z,101989.72
2018-06-27T13:03:08.830Z,101993.97
2018-06-27T13:05:36.025Z,101996.47
2018-06-27T13:08:05.036Z,101987.13
2018-06-27T13:10:32.533Z,101989.28
2018-06-27T13:12:59.807Z,101985.08
2018-06-27T13:15:31.876Z,101976.44
2018-06-27T13:17:59.097Z,101967.38
2018-06-27T13:20:26.333Z,101970.00
2018-06-27T13:22:53.612Z,101967.47
2018-06-27T13:25:20.864Z,101962.78
2018-06-27T13:27:48.050Z,101966.19
2018-06-27T13:30:15.270Z,101953.22
2018-06-27T13:32:42.448Z,101956.23
2018-06-27T13:35:09.757Z,101957.45
2018-06-27T13:37:37.053Z,101959.15
2018-06-27T13:40:04.290Z,101966.08
2018-06-27T13:42:31.606Z,101959.11
2018-06-27T13:44:58.836Z,101961.44
2018-06-27T13:47:26.128Z,101955.54
2018-06-27T13:49:53.771Z,101963.93
2018-06-27T13:52:21.006Z,101956.55
2018-06-27T13:54:53.919Z,101966.03
2018-06-27T13:57:21.122Z,101962.11
2018-06-27T13:59:48.697Z,101955.86
2018-06-27T14:02:15.876Z,101965.80
2018-06-27T14:04:43.007Z,101959.09
2018-06-27T14:07:10.221Z,101949.61
2018-06-27T14:09:37.433Z,101948.08
2018-06-27T14:12:04.637Z,101943.27
2018-06-27T14:14:35.797Z,101949.66
2018-06-27T14:17:03.030Z,101942.58
2018-06-27T14:19:30.777Z,101941.25
2018-06-27T14:21:58.238Z,101937.31
2018-06-27T14:24:25.726Z,101933.30
2018-06-27T14:26:52.912Z,101928.03
2018-06-27T14:29:20.103Z,101922.35
2018-06-27T14:31:47.209Z,101931.81
2018-06-27T14:34:14.375Z,101925.07
2018-06-27T14:36:41.574Z,101921.51
2018-06-27T14:39:09.459Z,101919.17
2018-06-27T14:41:36.716Z,101922.63
2018-06-27T14:44:04.126Z,101920.11
2018-06-27T14:46:31.623Z,101918.97
2018-06-27T14:48:58.880Z,101917.59
2018-06-27T14:51:26.551Z,101926.33
2018-06-27T14:53:53.791Z,101924.83
2018-06-27T14:56:21.037Z,101926.77
2018-06-27T14:58:48.205Z,101932.98
2018-06-27T15:01:15.381Z,101928.77
2018-06-27T15:03:42.520Z,101926.01
2018-06-27T15:06:09.703Z,101934.87
2018-06-27T15:08:37.002Z,101933.95
2018-06-27T15:11:04.182Z,101934.23
2018-06-27T15:13:31.473Z,101926.59
2018-06-27T15:15:58.742Z,101926.88
2018-06-27T15:18:26.100Z,101928.63
2018-06-27T15:20:53.352Z,101929.56
2018-06-27T15:23:20.489Z,101935.52
2018-06-27T15:25:47.604Z,101927.95
2018-06-27T15:28:14.802Z,101930.21
2018-06-27T15:30:42.112Z,101924.30
2018-06-27T15:33:09.297Z,101923.67
2018-06-27T15:35:38.563Z,101929.02
2018-06-27T15:38:06.778Z,101924.43
2018-06-27T15:40:33.985Z,101930.92
2018-06-27T15:43:01.369Z,101929.15
2018-06-27T15:45:28.634Z,101927.44
2018-06-27T15:47:56.059Z,101929.20
2018-06-27T15:50:23.301Z,101925.39
2018-06-27T15:52:50.701Z,101934.91
2018-06-27T15:55:17.877Z,101926.02
2018-06-27T15:57:45.111Z,101919.73
2018-06-27T16:00:12.318Z,101924.80
2018-06-27T16:02:39.826Z,101921.31
2018-06-27T16:05:07.186Z,101911.87
2018-06-27T16:07:34.521Z,101905.89
2018-06-27T16:10:01.881Z,101895.09
2018-06-27T16:12:29.353Z,101896.02
2018-06-27T16:14:57.216Z,101897.34
2018-06-27T16:17:26.010Z,101887.86
2018-06-27T16:19:52.975Z,101891.24
2018-06-27T16:22:21.184Z,101891.88
2018-06-27T16:24:49.203Z,101898.86
2018-06-27T16:27:16.439Z,101892.50
2018-06-27T16:29:43.604Z,101895.25
2018-06-27T16:32:10.715Z,101895.92
2018-06-27T16:34:37.925Z,101899.22
2018-06-27T16:37:05.202Z,101890.00
2018-06-27T16:39:33.258Z,101889.09
2018-06-27T16:42:00.605Z,101891.95
2018-06-27T16:44:28.944Z,101883.81
2018-06-27T16:46:56.411Z,101889.10
2018-06-27T16:49:23.750Z,101887.93
2018-06-27T16:51:51.038Z,101889.42
2018-06-27T16:54:18.209Z,101887.66
2018-06-27T16:56:45.610Z,101884.81
2018-06-27T16:59:12.828Z,101882.28
2018-06-27T17:01:40.145Z,101880.08
2018-06-27T17:04:09.574Z,101880.25
2018-06-27T17:06:36.655Z,101880.86
2018-06-27T17:09:06.510Z,101886.15
2018-06-27T17:11:33.728Z,101880.15
2018-06-27T17:14:03.028Z,101888.48
2018-06-27T17:16:30.375Z,101884.52
2018-06-27T17:18:57.830Z,101888.04
2018-06-27T17:21:25.098Z,101895.58
2018-06-27T17:23:52.304Z,101903.27
2018-06-27T17:26:19.479Z,101893.73
2018-06-27T17:28:46.623Z,101900.98
2018-06-27T17:31:13.852Z,101903.57
2018-06-27T17:33:41.179Z,101901.58
2018-06-27T17:36:08.360Z,101906.95
2018-06-27T17:38:35.550Z,101914.17
2018-06-27T17:41:02.877Z,101905.30
2018-06-27T17:43:30.198Z,101905.89
2018-06-27T17:45:57.576Z,101909.08
2018-06-27T17:48:25.130Z,101909.02
2018-06-27T17:50:52.288Z,101899.52
2018-06-27T17:53:19.539Z,101904.34
2018-06-27T17:55:46.748Z,101901.34
2018-06-27T17:58:13.893Z,101904.03
2018-06-27T18:00:41.056Z,101903.16
2018-06-27T18:03:08.288Z,101897.75
2018-06-27T18:05:35.488Z,101902.66
2018-06-27T18:08:02.891Z,101904.20
2018-06-27T18:10:30.202Z,101902.86
2018-06-27T18:12:57.526Z,101907.94
2018-06-27T18:15:25.646Z,101903.38
2018-06-27T18:17:52.845Z,101903.09
2018-06-27T18:20:20.110Z,101901.19
2018-06-27T18:22:47.248Z,101898.52
2018-06-27T18:25:14.415Z,101905.81
2018-06-27T18:27:41.739Z,101903.48
2018-06-27T18:30:08.895Z,101901.52
2018-06-27T18:32:36.121Z,101905.15
2018-06-27T18:35:03.957Z,101900.73
2018-06-27T18:37:39.031Z,101907.50
2018-06-27T18:40:07.741Z,101907.41
2018-06-27T18:42:35.520Z,101909.87
2018-06-27T18:45:02.884Z,101916.91
2018-06-27T18:47:30.121Z,101914.63
2018-06-27T18:49:58.005Z,101910.83
2018-06-27T18:52:25.410Z,101910.91
2018-06-27T18:54:52.590Z,101914.27
2018-06-27T18:57:19.855Z,101923.19
2018-06-27T18:59:47.071Z,101917.07
2018-06-27T19:02:14.287Z,101919.37
2018-06-27T19:04:41.489Z,101923.09
2018-06-27T19:07:08.717Z,101924.91
2018-06-27T19:09:35.913Z,101916.06
2018-06-27T19:12:03.170Z,101922.22
2018-06-27T19:14:30.689Z,101922.16
2018-06-27T19:16:58.740Z,101927.50
2018-06-27T19:19:26.738Z,101928.30
2018-06-27T19:21:54.235Z,101924.02
2018-06-27T19:24:21.483Z,101928.73
2018-06-27T19:26:48.591Z,101934.09
2018-06-27T19:29:15.897Z,101930.52
2018-06-27T19:31:43.205Z,101934.86
2018-06-27T19:34:10.411Z,101937.97
2018-06-27T19:36:37.617Z,101936.23
2018-06-27T19:39:08.097Z,101934.02
2018-06-27T19:41:35.384Z,101941.16
2018-06-27T19:44:02.768Z,101934.13
2018-06-27T19:46:30.028Z,101935.44
2018-06-27T19:48:57.241Z,101942.03
2018-06-27T19:51:24.567Z,101926.45
2018-06-27T19:53:51.655Z,101937.91
2018-06-27T19:56:18.747Z,101941.32
2018-06-27T19:58:45.932Z,101938.16
2018-06-27T20:01:20.808Z,101942.44
2018-06-27T20:03:48.017Z,101933.89
2018-06-27T20:06:15.214Z,101933.20
2018-06-27T20:08:42.361Z,101938.43
2018-06-27T20:11:09.544Z,101945.22
2018-06-27T20:13:36.663Z,101943.70
2018-06-27T20:16:04.156Z,101948.41
2018-06-27T20:18:31.502Z,101951.67
2018-06-27T20:20:58.717Z,101949.14
2018-06-27T20:23:25.916Z,101947.06
2018-06-27T20:25:53.558Z,101943.66
2018-06-27T20:28:20.756Z,101946.69
2018-06-27T20:30:47.932Z,101948.39
2018-06-27T20:33:15.117Z,101949.27
2018-06-27T20:35:42.245Z,101947.56
2018-06-27T20:38:09.413Z,101953.72
2018-06-27T20:40:36.600Z,101958.58
2018-06-27T20:43:03.840Z,101955.66
2018-06-27T20:45:30.992Z,101963.47
2018-06-27T20:47:58.208Z,101960.65
2018-06-27T20:50:25.432Z,101956.28
2018-06-27T20:52:52.598Z,101961.94
2018-06-27T20:55:19.968Z,101962.90
2018-06-27T20:57:47.058Z,101964.79
2018-06-27T21:00:14.206Z,101965.30
2018-06-27T21:02:41.370Z,101959.15
2018-06-27T21:05:08.502Z,101957.81
2018-06-27T21:07:35.724Z,101961.49
2018-06-27T21:10:03.083Z,101959.97
2018-06-27T21:12:30.244Z,101958.05
2018-06-27T21:14:57.506Z,101957.22
2018-06-27T21:17:25.143Z,101962.41
2018-06-27T21:19:52.387Z,101966.36
2018-06-27T21:22:19.544Z,101968.61
2018-06-27T21:24:46.986Z,101974.25
2018-06-27T21:27:14.161Z,101980.87
2018-06-27T21:29:41.263Z,101981.80
2018-06-27T21:32:08.536Z,101978.39
2018-06-27T21:34:35.694Z,101976.05
2018-06-27T21:37:02.850Z,101981.19
2018-06-27T21:39:30.049Z,101979.73
2018-06-27T21:41:57.314Z,101983.72
2018-06-27T21:44:24.727Z,101983.27
2018-06-27T21:46:52.001Z,101982.47
2018-06-27T21:49:19.123Z,101989.13
2018-06-27T21:51:46.267Z,101982.80
2018-06-27T21:54:13.443Z,101984.31
2018-06-27T21:56:40.657Z,101988.92
2018-06-27T21:59:07.810Z,101986.75
2018-06-27T22:01:35.007Z,101988.12
2018-06-27T22:04:02.263Z,101988.08
2018-06-27T22:06:29.496Z,101993.17
2018-06-27T22:08:56.878Z,101996.25
2018-06-27T22:11:24.206Z,101986.11
2018-06-27T22:13:51.398Z,101988.05
2018-06-27T22:16:18.582Z,101985.97
2018-06-27T22:18:46.471Z,101980.33
2018-06-27T22:21:13.781Z,101980.92
2018-06-27T22:23:41.890Z,101978.20
2018-06-27T22:26:09.088Z,101981.19
2018-06-27T22:28:36.197Z,101978.39
2018-06-27T22:31:03.364Z,101973.24
2018-06-27T22:33:30.620Z,101979.86
2018-06-27T22:35:57.932Z,101977.02
2018-06-27T22:38:25.225Z,101976.31
2018-06-27T22:40:52.481Z,101980.19
2018-06-27T22:43:19.725Z,101976.97
2018-06-27T22:45:46.999Z,101973.84
2018-06-27T22:48:14.140Z,101974.52
2018-06-27T22:50:41.263Z,101975.76
2018-06-27T22:53:08.461Z,101966.20
2018-06-27T22:55:35.617Z,101967.48
2018-06-27T22:58:02.861Z,101972.18
2018-06-27T23:00:30.099Z,101964.56
2018-06-27T23:02:57.367Z,101967.36
2018-06-27T23:05:24.900Z,101970.48
2018-06-27T23:07:52.055Z,101973.45
2018-06-27T23:10:19.255Z,101976.64
2018-06-27T23:12:46.394Z,101962.49
2018-06-27T23:15:13.643Z,101963.88
2018-06-27T23:17:40.881Z,101965.20
2018-06-27T23:20:08.052Z,101964.51
2018-06-27T23:22:42.651Z,101962.97
2018-06-27T23:25:09.824Z,101961.20
2018-06-27T23:27:36.935Z,101959.36
2018-06-27T23:30:04.680Z,101957.11
2018-06-27T23:32:31.828Z,101964.75
2018-06-27T23:34:59.038Z,101960.08
2018-06-27T23:37:26.307Z,101959.67
2018-06-27T23:39:53.753Z,101956.70
2018-06-27T23:42:20.869Z,101957.44
2018-06-27T23:44:48.029Z,101954.08
2018-06-27T23:47:15.156Z,101955.61
2018-06-27T23:49:42.464Z,101950.88
2018-06-27T23:52:09.544Z,101952.36
2018-06-27T23:54:36.653Z,101950.84
2018-06-27T23:57:04.804Z,101950.94
2018-06-27T23:59:32.068Z,101953.09
